sensor_id;sensor_type;location;lat;lon;timestamp;P1;durP1;ratioP1;P2;durP2;ratioP2
9280;SDS011;4679;47.966;7.958;2024-03-25T06:40:18;1.87;;;1.40;;
9280;SDS011;4679;47.966;7.958;2024-03-25T06:42:19;3.33;;;1.93;;
9280;SDS011;4679;47.966;7.958;2024-03-25T06:44:20;2.70;;;1.70;;
9280;SDS011;4679;47.966;7.958;2024-03-25T06:46:20;4.30;;;1.80;;
9280;SDS011;4679;47.966;7.958;2024-03-25T06:48:21;3.37;;;1.40;;
9280;SDS011;4679;47.966;7.958;2024-03-25T06:50:22;2.87;;;1.40;;
9280;SDS011;4679;47.966;7.958;2024-03-25T06:52:22;2.13;;;1.40;;
9280;SDS011;4679;47.966;7.958;2024-03-25T06:54:23;5.03;;;1.30;;
9280;SDS011;4679;47.966;7.958;2024-03-25T06:56:25;3.30;;;1.20;;
9280;SDS011;4679;47.966;7.958;2024-03-25T06:58:26;1.53;;;1.43;;
9280;SDS011;4679;47.966;7.958;2024-03-25T07:00:27;2.20;;;1.10;;
9280;SDS011;4679;47.966;7.958;2024-03-25T07:02:28;2.43;;;1.73;;
9280;SDS011;4679;47.966;7.958;2024-03-25T07:04:29;1.87;;;1.77;;
9280;SDS011;4679;47.966;7.958;2024-03-25T07:06:29;3.40;;;1.40;;
9280;SDS011;4679;47.966;7.958;2024-03-25T07:08:30;1.33;;;1.23;;
9280;SDS011;4679;47.966;7.958;2024-03-25T07:10:31;2.93;;;1.83;;
9280;SDS011;4679;47.966;7.958;2024-03-25T07:12:34;4.20;;;1.30;;
9280;SDS011;4679;47.966;7.958;2024-03-25T07:14:34;3.80;;;1.67;;
9280;SDS011;4679;47.966;7.958;2024-03-25T07:16:35;2.00;;;1.20;;
9280;SDS011;4679;47.966;7.958;2024-03-25T07:18:35;3.53;;;1.37;;
9280;SDS011;4679;47.966;7.958;2024-03-25T07:20:36;1.83;;;1.30;;
9280;SDS011;4679;47.966;7.958;2024-03-25T07:22:37;1.13;;;1.00;;
9280;SDS011;4679;47.966;7.958;2024-03-25T07:24:37;1.23;;;1.13;;
9280;SDS011;4679;47.966;7.958;2024-03-25T07:26:38;0.93;;;0.93;;
9280;SDS011;4679;47.966;7.958;2024-03-25T07:28:40;1.63;;;0.80;;
9280;SDS011;4679;47.966;7.958;2024-03-25T07:30:41;3.70;;;1.10;;
9280;SDS011;4679;47.966;7.958;2024-03-25T07:32:42;2.97;;;1.10;;
9280;SDS011;4679;47.966;7.958;2024-03-25T07:34:43;3.70;;;1.40;;
9280;SDS011;4679;47.966;7.958;2024-03-25T07:36:43;3.23;;;1.27;;
9280;SDS011;4679;47.966;7.958;2024-03-25T07:38:44;1.93;;;1.10;;
9280;SDS011;4679;47.966;7.958;2024-03-25T07:40:45;1.73;;;1.10;;
9280;SDS011;4679;47.966;7.958;2024-03-25T07:42:45;3.07;;;0.90;;
9280;SDS011;4679;47.966;7.958;2024-03-25T07:44:47;1.87;;;1.53;;
9280;SDS011;4679;47.966;7.958;2024-03-25T07:46:48;1.27;;;0.80;;
9280;SDS011;4679;47.966;7.958;2024-03-25T07:48:49;2.03;;;0.97;;
9280;SDS011;4679;47.966;7.958;2024-03-25T07:50:49;3.00;;;0.90;;
9280;SDS011;4679;47.966;7.958;2024-03-25T07:52:50;4.13;;;1.20;;
9280;SDS011;4679;47.966;7.958;2024-03-25T07:54:51;2.17;;;1.00;;
9280;SDS011;4679;47.966;7.958;2024-03-25T07:56:51;1.90;;;1.27;;
9280;SDS011;4679;47.966;7.958;2024-03-25T07:58:52;1.47;;;0.80;;
9280;SDS011;4679;47.966;7.958;2024-03-25T08:00:54;1.27;;;0.90;;
9280;SDS011;4679;47.966;7.958;2024-03-25T08:02:55;2.93;;;0.80;;
9280;SDS011;4679;47.966;7.958;2024-03-25T08:04:55;2.00;;;0.80;;
9280;SDS011;4679;47.966;7.958;2024-03-25T08:06:56;2.60;;;1.13;;
9280;SDS011;4679;47.966;7.958;2024-03-25T08:08:56;1.17;;;1.07;;
9280;SDS011;4679;47.966;7.958;2024-03-25T08:10:57;1.17;;;0.77;;
9280;SDS011;4679;47.966;7.958;2024-03-25T08:12:58;0.90;;;0.80;;
9280;SDS011;4679;47.966;7.958;2024-03-25T08:14:58;1.20;;;0.80;;
9280;SDS011;4679;47.966;7.958;2024-03-25T08:17:00;1.30;;;0.80;;
9280;SDS011;4679;47.966;7.958;2024-03-25T08:19:01;1.17;;;0.60;;
9280;SDS011;4679;47.966;7.958;2024-03-25T08:21:02;1.97;;;0.80;;
9280;SDS011;4679;47.966;7.958;2024-03-25T08:23:03;3.37;;;0.83;;
9280;SDS011;4679;47.966;7.958;2024-03-25T08:25:04;1.73;;;0.70;;
9280;SDS011;4679;47.966;7.958;2024-03-25T08:27:05;1.40;;;0.90;;
9280;SDS011;4679;47.966;7.958;2024-03-25T08:29:05;1.17;;;0.80;;
9280;SDS011;4679;47.966;7.958;2024-03-25T08:31:06;0.93;;;0.60;;
9280;SDS011;4679;47.966;7.958;2024-03-25T08:33:08;4.00;;;1.40;;
9280;SDS011;4679;47.966;7.958;2024-03-25T08:35:09;1.47;;;0.67;;
9280;SDS011;4679;47.966;7.958;2024-03-25T08:37:09;1.93;;;0.70;;
9280;SDS011;4679;47.966;7.958;2024-03-25T08:39:10;5.77;;;1.20;;
9280;SDS011;4679;47.966;7.958;2024-03-25T08:41:11;2.20;;;0.63;;
9280;SDS011;4679;47.966;7.958;2024-03-25T08:43:11;2.90;;;0.60;;
9280;SDS011;4679;47.966;7.958;2024-03-25T08:45:12;1.23;;;0.67;;
9280;SDS011;4679;47.966;7.958;2024-03-25T08:47:13;1.67;;;0.77;;
9280;SDS011;4679;47.966;7.958;2024-03-25T08:49:15;1.33;;;0.60;;
9280;SDS011;4679;47.966;7.958;2024-03-25T08:51:15;1.60;;;0.60;;
9280;SDS011;4679;47.966;7.958;2024-03-25T08:53:16;3.43;;;0.70;;
9280;SDS011;4679;47.966;7.958;2024-03-25T08:55:17;1.53;;;0.60;;
9280;SDS011;4679;47.966;7.958;2024-03-25T08:57:17;1.47;;;0.60;;
9280;SDS011;4679;47.966;7.958;2024-03-25T08:59:18;0.80;;;0.70;;
9280;SDS011;4679;47.966;7.958;2024-03-25T09:01:18;1.00;;;0.40;;
9280;SDS011;4679;47.966;7.958;2024-03-25T09:03:19;1.07;;;0.70;;
9280;SDS011;4679;47.966;7.958;2024-03-25T09:05:21;0.57;;;0.57;;
9280;SDS011;4679;47.966;7.958;2024-03-25T09:07:22;1.90;;;0.50;;
9280;SDS011;4679;47.966;7.958;2024-03-25T09:09:23;0.73;;;0.50;;
9280;SDS011;4679;47.966;7.958;2024-03-25T09:11:50;3.50;;;0.63;;
9280;SDS011;4679;47.966;7.958;2024-03-25T09:13:50;2.17;;;0.63;;
9280;SDS011;4679;47.966;7.958;2024-03-25T09:15:51;1.10;;;0.60;;
9280;SDS011;4679;47.966;7.958;2024-03-25T09:17:52;0.60;;;0.50;;
9280;SDS011;4679;47.966;7.958;2024-03-25T09:19:52;2.10;;;0.50;;
9280;SDS011;4679;47.966;7.958;2024-03-25T09:21:54;2.60;;;0.80;;
9280;SDS011;4679;47.966;7.958;2024-03-25T09:23:55;3.57;;;1.00;;
9280;SDS011;4679;47.966;7.958;2024-03-25T09:25:56;2.23;;;0.40;;
9280;SDS011;4679;47.966;7.958;2024-03-25T09:27:56;1.43;;;0.40;;
9280;SDS011;4679;47.966;7.958;2024-03-25T09:29:57;0.83;;;0.57;;
9280;SDS011;4679;47.966;7.958;2024-03-25T09:31:57;0.67;;;0.50;;
9280;SDS011;4679;47.966;7.958;2024-03-25T09:33:58;1.30;;;0.70;;
9280;SDS011;4679;47.966;7.958;2024-03-25T09:35:59;1.53;;;0.33;;
9280;SDS011;4679;47.966;7.958;2024-03-25T09:38:01;1.67;;;0.50;;
9280;SDS011;4679;47.966;7.958;2024-03-25T09:40:02;0.50;;;0.40;;
9280;SDS011;4679;47.966;7.958;2024-03-25T09:42:03;0.50;;;0.30;;
9280;SDS011;4679;47.966;7.958;2024-03-25T09:44:08;0.47;;;0.43;;
9280;SDS011;4679;47.966;7.958;2024-03-25T09:46:09;1.10;;;0.60;;
9280;SDS011;4679;47.966;7.958;2024-03-25T09:48:10;1.87;;;0.80;;
9280;SDS011;4679;47.966;7.958;2024-03-25T09:50:12;1.23;;;0.50;;
9280;SDS011;4679;47.966;7.958;2024-03-25T09:52:13;1.57;;;0.30;;
9280;SDS011;4679;47.966;7.958;2024-03-25T09:54:16;0.53;;;0.40;;
9280;SDS011;4679;47.966;7.958;2024-03-25T09:56:16;1.90;;;0.60;;
9280;SDS011;4679;47.966;7.958;2024-03-25T09:58:17;3.40;;;0.50;;
9280;SDS011;4679;47.966;7.958;2024-03-25T10:00:19;2.10;;;0.60;;
9280;SDS011;4679;47.966;7.958;2024-03-25T10:02:21;2.60;;;0.50;;
9280;SDS011;4679;47.966;7.958;2024-03-25T10:04:22;1.33;;;0.53;;
9280;SDS011;4679;47.966;7.958;2024-03-25T10:06:23;4.83;;;0.50;;
9280;SDS011;4679;47.966;7.958;2024-03-25T10:08:24;0.87;;;0.47;;
9280;SDS011;4679;47.966;7.958;2024-03-25T10:10:26;0.93;;;0.50;;
9280;SDS011;4679;47.966;7.958;2024-03-25T10:12:27;1.00;;;0.60;;
9280;SDS011;4679;47.966;7.958;2024-03-25T10:14:27;2.13;;;0.47;;
9280;SDS011;4679;47.966;7.958;2024-03-25T10:16:28;1.27;;;0.50;;
9280;SDS011;4679;47.966;7.958;2024-03-25T10:18:29;0.83;;;0.40;;
9280;SDS011;4679;47.966;7.958;2024-03-25T10:20:29;1.50;;;0.50;;
9280;SDS011;4679;47.966;7.958;2024-03-25T10:22:30;2.23;;;0.50;;
9280;SDS011;4679;47.966;7.958;2024-03-25T10:24:37;0.93;;;0.43;;
9280;SDS011;4679;47.966;7.958;2024-03-25T10:26:40;1.03;;;0.60;;
9280;SDS011;4679;47.966;7.958;2024-03-25T10:28:43;1.80;;;0.40;;
9280;SDS011;4679;47.966;7.958;2024-03-25T10:30:43;1.13;;;0.60;;
9280;SDS011;4679;47.966;7.958;2024-03-25T10:32:44;0.87;;;0.40;;
9280;SDS011;4679;47.966;7.958;2024-03-25T10:34:45;0.87;;;0.50;;
9280;SDS011;4679;47.966;7.958;2024-03-25T10:36:45;1.90;;;0.60;;
9280;SDS011;4679;47.966;7.958;2024-03-25T10:38:46;0.90;;;0.40;;
9280;SDS011;4679;47.966;7.958;2024-03-25T10:40:49;0.60;;;0.50;;
9280;SDS011;4679;47.966;7.958;2024-03-25T10:42:53;2.03;;;0.40;;
9280;SDS011;4679;47.966;7.958;2024-03-25T10:45:00;1.03;;;1.03;;
9280;SDS011;4679;47.966;7.958;2024-03-25T10:47:02;0.83;;;0.47;;
9280;SDS011;4679;47.966;7.958;2024-03-25T10:49:05;0.60;;;0.37;;
9280;SDS011;4679;47.966;7.958;2024-03-25T10:51:13;0.50;;;0.40;;
9280;SDS011;4679;47.966;7.958;2024-03-25T10:53:14;0.50;;;0.40;;
9280;SDS011;4679;47.966;7.958;2024-03-25T10:55:18;0.47;;;0.40;;
9280;SDS011;4679;47.966;7.958;2024-03-25T10:57:20;1.50;;;0.50;;
9280;SDS011;4679;47.966;7.958;2024-03-25T10:59:22;0.50;;;0.40;;
9280;SDS011;4679;47.966;7.958;2024-03-25T11:01:24;1.03;;;0.30;;
9280;SDS011;4679;47.966;7.958;2024-03-25T11:03:25;0.30;;;0.30;;
9280;SDS011;4679;47.966;7.958;2024-03-25T11:05:26;1.63;;;0.50;;
9280;SDS011;4679;47.966;7.958;2024-03-25T11:07:30;0.63;;;0.43;;
9280;SDS011;4679;47.966;7.958;2024-03-25T11:09:31;0.60;;;0.30;;
9280;SDS011;4679;47.966;7.958;2024-03-25T11:11:32;1.50;;;0.50;;
9280;SDS011;4679;47.966;7.958;2024-03-25T11:13:33;0.67;;;0.43;;
9280;SDS011;4679;47.966;7.958;2024-03-25T11:15:36;1.43;;;0.50;;
9280;SDS011;4679;47.966;7.958;2024-03-25T11:17:38;1.83;;;0.70;;
9280;SDS011;4679;47.966;7.958;2024-03-25T11:19:49;1.27;;;0.57;;
9280;SDS011;4679;47.966;7.958;2024-03-25T11:21:49;3.10;;;0.60;;
9280;SDS011;4679;47.966;7.958;2024-03-25T11:23:50;0.87;;;0.80;;
9280;SDS011;4679;47.966;7.958;2024-03-25T11:25:54;0.90;;;0.40;;
9280;SDS011;4679;47.966;7.958;2024-03-25T11:27:55;1.13;;;0.50;;
9280;SDS011;4679;47.966;7.958;2024-03-25T11:29:56;0.63;;;0.40;;
9280;SDS011;4679;47.966;7.958;2024-03-25T11:31:58;0.63;;;0.30;;
9280;SDS011;4679;47.966;7.958;2024-03-25T11:34:04;0.30;;;0.30;;
9280;SDS011;4679;47.966;7.958;2024-03-25T11:36:05;1.13;;;0.33;;
9280;SDS011;4679;47.966;7.958;2024-03-25T11:38:06;0.53;;;0.40;;
9280;SDS011;4679;47.966;7.958;2024-03-25T11:40:07;10.80;;;0.93;;
9280;SDS011;4679;47.966;7.958;2024-03-25T11:42:08;0.97;;;0.40;;
9280;SDS011;4679;47.966;7.958;2024-03-25T11:44:09;0.57;;;0.33;;
9280;SDS011;4679;47.966;7.958;2024-03-25T11:46:11;0.97;;;0.40;;
9280;SDS011;4679;47.966;7.958;2024-03-25T11:48:18;0.30;;;0.30;;
9280;SDS011;4679;47.966;7.958;2024-03-25T11:50:19;0.80;;;0.40;;
9280;SDS011;4679;47.966;7.958;2024-03-25T11:52:20;1.07;;;0.43;;
9280;SDS011;4679;47.966;7.958;2024-03-25T11:54:21;0.37;;;0.30;;
9280;SDS011;4679;47.966;7.958;2024-03-25T11:56:21;0.90;;;0.40;;
9280;SDS011;4679;47.966;7.958;2024-03-25T11:58:22;1.37;;;0.47;;
9280;SDS011;4679;47.966;7.958;2024-03-25T12:00:23;1.03;;;0.30;;
9280;SDS011;4679;47.966;7.958;2024-03-25T12:02:24;1.60;;;0.40;;
9280;SDS011;4679;47.966;7.958;2024-03-25T12:04:27;1.47;;;0.30;;
9280;SDS011;4679;47.966;7.958;2024-03-25T12:06:27;1.20;;;0.30;;
9280;SDS011;4679;47.966;7.958;2024-03-25T12:08:28;0.70;;;0.30;;
9280;SDS011;4679;47.966;7.958;2024-03-25T12:10:55;0.30;;;0.30;;
9280;SDS011;4679;47.966;7.958;2024-03-25T12:13:14;1.37;;;0.37;;
9280;SDS011;4679;47.966;7.958;2024-03-25T12:15:15;0.67;;;0.30;;
9280;SDS011;4679;47.966;7.958;2024-03-25T12:17:16;0.50;;;0.33;;
9280;SDS011;4679;47.966;7.958;2024-03-25T12:19:17;1.37;;;0.30;;
9280;SDS011;4679;47.966;7.958;2024-03-25T12:21:18;2.07;;;0.40;;
9280;SDS011;4679;47.966;7.958;2024-03-25T12:23:19;0.40;;;0.30;;
9280;SDS011;4679;47.966;7.958;2024-03-25T12:25:20;1.13;;;0.50;;
9280;SDS011;4679;47.966;7.958;2024-03-25T12:27:22;1.33;;;0.40;;
9280;SDS011;4679;47.966;7.958;2024-03-25T12:29:23;0.50;;;0.30;;
9280;SDS011;4679;47.966;7.958;2024-03-25T12:31:24;0.73;;;0.47;;
9280;SDS011;4679;47.966;7.958;2024-03-25T12:33:24;1.50;;;0.43;;
9280;SDS011;4679;47.966;7.958;2024-03-25T12:35:25;0.40;;;0.30;;
9280;SDS011;4679;47.966;7.958;2024-03-25T12:37:26;1.17;;;0.40;;
9280;SDS011;4679;47.966;7.958;2024-03-25T12:39:27;0.70;;;0.40;;
9280;SDS011;4679;47.966;7.958;2024-03-25T12:41:28;0.53;;;0.30;;
9280;SDS011;4679;47.966;7.958;2024-03-25T12:43:30;0.20;;;0.20;;
9280;SDS011;4679;47.966;7.958;2024-03-25T12:45:32;1.20;;;0.30;;
9280;SDS011;4679;47.966;7.958;2024-03-25T12:47:33;1.03;;;0.40;;
9280;SDS011;4679;47.966;7.958;2024-03-25T12:49:34;0.53;;;0.40;;
9280;SDS011;4679;47.966;7.958;2024-03-25T12:51:34;0.97;;;0.30;;
9280;SDS011;4679;47.966;7.958;2024-03-25T12:53:35;1.13;;;0.40;;
9280;SDS011;4679;47.966;7.958;2024-03-25T12:55:36;0.80;;;0.53;;
9280;SDS011;4679;47.966;7.958;2024-03-25T12:57:36;0.30;;;0.30;;
9280;SDS011;4679;47.966;7.958;2024-03-25T12:59:38;0.30;;;0.30;;
9280;SDS011;4679;47.966;7.958;2024-03-25T13:01:39;0.57;;;0.30;;
9280;SDS011;4679;47.966;7.958;2024-03-25T13:03:41;1.33;;;0.37;;
9280;SDS011;4679;47.966;7.958;2024-03-25T13:05:43;0.40;;;0.30;;
9280;SDS011;4679;47.966;7.958;2024-03-25T13:07:43;0.97;;;0.40;;
9280;SDS011;4679;47.966;7.958;2024-03-25T13:09:44;0.97;;;0.87;;
9280;SDS011;4679;47.966;7.958;2024-03-25T13:11:45;0.20;;;0.20;;
9280;SDS011;4679;47.966;7.958;2024-03-25T13:13:45;0.97;;;0.30;;
9280;SDS011;4679;47.966;7.958;2024-03-25T13:15:48;0.60;;;0.23;;
9280;SDS011;4679;47.966;7.958;2024-03-25T13:17:48;0.40;;;0.30;;
9280;SDS011;4679;47.966;7.958;2024-03-25T13:19:49;0.40;;;0.30;;
9280;SDS011;4679;47.966;7.958;2024-03-25T13:21:50;0.40;;;0.40;;
9280;SDS011;4679;47.966;7.958;2024-03-25T13:23:50;2.23;;;0.70;;
9280;SDS011;4679;47.966;7.958;2024-03-25T13:25:51;1.23;;;0.40;;
9280;SDS011;4679;47.966;7.958;2024-03-25T13:27:52;2.83;;;0.30;;
9280;SDS011;4679;47.966;7.958;2024-03-25T13:29:52;0.90;;;0.37;;
9280;SDS011;4679;47.966;7.958;2024-03-25T13:31:54;0.80;;;0.50;;
9280;SDS011;4679;47.966;7.958;2024-03-25T13:33:55;0.30;;;0.20;;
9280;SDS011;4679;47.966;7.958;2024-03-25T13:35:56;0.33;;;0.30;;
9280;SDS011;4679;47.966;7.958;2024-03-25T13:37:57;0.40;;;0.40;;
9280;SDS011;4679;47.966;7.958;2024-03-25T13:39:58;0.60;;;0.30;;
9280;SDS011;4679;47.966;7.958;2024-03-25T13:41:58;0.70;;;0.30;;
9280;SDS011;4679;47.966;7.958;2024-03-25T13:43:59;0.30;;;0.30;;
9280;SDS011;4679;47.966;7.958;2024-03-25T13:45:59;0.57;;;0.40;;
9280;SDS011;4679;47.966;7.958;2024-03-25T13:48:02;0.63;;;0.40;;
9280;SDS011;4679;47.966;7.958;2024-03-25T13:50:02;1.70;;;0.43;;
9280;SDS011;4679;47.966;7.958;2024-03-25T13:52:04;1.07;;;0.40;;
9280;SDS011;4679;47.966;7.958;2024-03-25T13:54:05;0.60;;;0.30;;
9280;SDS011;4679;47.966;7.958;2024-03-25T13:56:06;0.40;;;0.30;;
9280;SDS011;4679;47.966;7.958;2024-03-25T13:58:07;2.50;;;0.40;;
9280;SDS011;4679;47.966;7.958;2024-03-25T14:00:08;0.37;;;0.30;;
9280;SDS011;4679;47.966;7.958;2024-03-25T14:02:09;0.53;;;0.30;;
9280;SDS011;4679;47.966;7.958;2024-03-25T14:04:12;0.50;;;0.20;;
9280;SDS011;4679;47.966;7.958;2024-03-25T14:06:12;0.40;;;0.30;;
9280;SDS011;4679;47.966;7.958;2024-03-25T14:08:13;0.77;;;0.30;;
9280;SDS011;4679;47.966;7.958;2024-03-25T14:10:14;2.03;;;0.27;;
9280;SDS011;4679;47.966;7.958;2024-03-25T14:12:14;0.40;;;0.27;;
9280;SDS011;4679;47.966;7.958;2024-03-25T14:14:15;0.50;;;0.30;;
9280;SDS011;4679;47.966;7.958;2024-03-25T14:16:16;1.33;;;0.30;;
9280;SDS011;4679;47.966;7.958;2024-03-25T14:18:16;0.97;;;0.40;;
9280;SDS011;4679;47.966;7.958;2024-03-25T14:20:18;0.37;;;0.30;;
9280;SDS011;4679;47.966;7.958;2024-03-25T14:22:19;1.77;;;0.40;;
9280;SDS011;4679;47.966;7.958;2024-03-25T14:24:20;1.70;;;0.40;;
9280;SDS011;4679;47.966;7.958;2024-03-25T14:26:20;0.60;;;0.50;;
9280;SDS011;4679;47.966;7.958;2024-03-25T14:28:21;1.27;;;0.40;;
9280;SDS011;4679;47.966;7.958;2024-03-25T14:30:22;0.30;;;0.30;;
9280;SDS011;4679;47.966;7.958;2024-03-25T14:32:23;0.87;;;0.23;;
9280;SDS011;4679;47.966;7.958;2024-03-25T14:34:24;0.73;;;0.30;;
9280;SDS011;4679;47.966;7.958;2024-03-25T14:36:26;1.13;;;0.30;;
9280;SDS011;4679;47.966;7.958;2024-03-25T14:38:27;0.80;;;0.40;;
9280;SDS011;4679;47.966;7.958;2024-03-25T14:40:28;0.50;;;0.50;;
9280;SDS011;4679;47.966;7.958;2024-03-25T14:42:28;1.70;;;0.40;;
9280;SDS011;4679;47.966;7.958;2024-03-25T14:44:29;1.30;;;0.40;;
9280;SDS011;4679;47.966;7.958;2024-03-25T14:46:30;1.27;;;0.40;;
9280;SDS011;4679;47.966;7.958;2024-03-25T14:48:31;0.50;;;0.30;;
9280;SDS011;4679;47.966;7.958;2024-03-25T14:50:31;1.60;;;0.43;;
9280;SDS011;4679;47.966;7.958;2024-03-25T14:52:33;1.17;;;0.50;;
9280;SDS011;4679;47.966;7.958;2024-03-25T14:54:34;0.83;;;0.40;;
9280;SDS011;4679;47.966;7.958;2024-03-25T14:56:35;2.73;;;0.40;;
9280;SDS011;4679;47.966;7.958;2024-03-25T14:58:36;1.07;;;0.40;;
9280;SDS011;4679;47.966;7.958;2024-03-25T15:00:36;1.57;;;0.40;;
9280;SDS011;4679;47.966;7.958;2024-03-25T15:02:37;1.10;;;0.33;;
9280;SDS011;4679;47.966;7.958;2024-03-25T15:04:38;1.27;;;0.50;;
9280;SDS011;4679;47.966;7.958;2024-03-25T15:06:38;1.87;;;0.40;;
9280;SDS011;4679;47.966;7.958;2024-03-25T15:08:40;0.73;;;0.30;;
9280;SDS011;4679;47.966;7.958;2024-03-25T15:10:41;0.47;;;0.30;;
9280;SDS011;4679;47.966;7.958;2024-03-25T15:12:42;0.70;;;0.40;;
9280;SDS011;4679;47.966;7.958;2024-03-25T15:14:43;0.50;;;0.30;;
9280;SDS011;4679;47.966;7.958;2024-03-25T15:16:43;0.40;;;0.30;;
9280;SDS011;4679;47.966;7.958;2024-03-25T15:18:44;0.60;;;0.30;;
9280;SDS011;4679;47.966;7.958;2024-03-25T15:20:45;0.60;;;0.30;;
9280;SDS011;4679;47.966;7.958;2024-03-25T15:22:45;0.60;;;0.50;;
9280;SDS011;4679;47.966;7.958;2024-03-25T15:24:47;0.43;;;0.27;;
9280;SDS011;4679;47.966;7.958;2024-03-25T15:26:48;0.40;;;0.40;;
9280;SDS011;4679;47.966;7.958;2024-03-25T15:28:49;0.50;;;0.30;;
9280;SDS011;4679;47.966;7.958;2024-03-25T15:30:50;0.50;;;0.50;;
9280;SDS011;4679;47.966;7.958;2024-03-25T15:32:51;0.40;;;0.40;;
9280;SDS011;4679;47.966;7.958;2024-03-25T15:34:51;1.17;;;0.40;;
9280;SDS011;4679;47.966;7.958;2024-03-25T15:36:52;1.13;;;0.50;;
9280;SDS011;4679;47.966;7.958;2024-03-25T15:38:53;0.83;;;0.40;;
9280;SDS011;4679;47.966;7.958;2024-03-25T15:40:55;0.40;;;0.40;;
9280;SDS011;4679;47.966;7.958;2024-03-25T15:42:55;0.97;;;0.40;;
9280;SDS011;4679;47.966;7.958;2024-03-25T15:44:56;0.50;;;0.50;;
9280;SDS011;4679;47.966;7.958;2024-03-25T15:46:57;1.10;;;0.57;;
9280;SDS011;4679;47.966;7.958;2024-03-25T15:48:57;0.40;;;0.40;;
9280;SDS011;4679;47.966;7.958;2024-03-25T15:50:58;1.33;;;0.30;;
9280;SDS011;4679;47.966;7.958;2024-03-25T15:52:59;0.43;;;0.40;;
9280;SDS011;4679;47.966;7.958;2024-03-25T15:54:59;0.60;;;0.50;;
9280;SDS011;4679;47.966;7.958;2024-03-25T15:57:01;1.07;;;0.40;;
9280;SDS011;4679;47.966;7.958;2024-03-25T15:59:02;0.73;;;0.37;;
9280;SDS011;4679;47.966;7.958;2024-03-25T16:01:03;1.77;;;0.60;;
9280;SDS011;4679;47.966;7.958;2024-03-25T16:03:04;0.73;;;0.40;;
9280;SDS011;4679;47.966;7.958;2024-03-25T16:05:05;0.40;;;0.30;;
9280;SDS011;4679;47.966;7.958;2024-03-25T16:07:06;0.50;;;0.30;;
9280;SDS011;4679;47.966;7.958;2024-03-25T16:09:07;2.00;;;0.20;;
9280;SDS011;4679;47.966;7.958;2024-03-25T16:11:13;0.40;;;0.30;;
9280;SDS011;4679;47.966;7.958;2024-03-25T16:13:16;2.00;;;0.30;;
9280;SDS011;4679;47.966;7.958;2024-03-25T16:15:17;0.70;;;0.40;;
9280;SDS011;4679;47.966;7.958;2024-03-25T16:17:17;0.63;;;0.40;;
9280;SDS011;4679;47.966;7.958;2024-03-25T16:19:19;0.60;;;0.30;;
9280;SDS011;4679;47.966;7.958;2024-03-25T16:21:20;0.67;;;0.30;;
9280;SDS011;4679;47.966;7.958;2024-03-25T16:23:20;0.37;;;0.37;;
9280;SDS011;4679;47.966;7.958;2024-03-25T16:25:21;0.30;;;0.30;;
9280;SDS011;4679;47.966;7.958;2024-03-25T16:27:22;0.40;;;0.30;;
9280;SDS011;4679;47.966;7.958;2024-03-25T16:29:24;0.90;;;0.30;;
9280;SDS011;4679;47.966;7.958;2024-03-25T16:31:25;1.17;;;0.40;;
9280;SDS011;4679;47.966;7.958;2024-03-25T16:33:26;0.30;;;0.20;;
9280;SDS011;4679;47.966;7.958;2024-03-25T16:35:26;0.30;;;0.20;;
9280;SDS011;4679;47.966;7.958;2024-03-25T16:37:27;3.17;;;0.50;;
9280;SDS011;4679;47.966;7.958;2024-03-25T16:39:28;0.50;;;0.30;;
9280;SDS011;4679;47.966;7.958;2024-03-25T16:41:28;2.50;;;0.43;;
9280;SDS011;4679;47.966;7.958;2024-03-25T16:43:29;6.83;;;0.50;;
9280;SDS011;4679;47.966;7.958;2024-03-25T16:45:31;0.40;;;0.40;;
9280;SDS011;4679;47.966;7.958;2024-03-25T16:47:32;0.40;;;0.30;;
9280;SDS011;4679;47.966;7.958;2024-03-25T16:49:32;0.50;;;0.23;;
9280;SDS011;4679;47.966;7.958;2024-03-25T16:51:33;2.77;;;0.43;;
9280;SDS011;4679;47.966;7.958;2024-03-25T16:53:34;0.63;;;0.30;;
9280;SDS011;4679;47.966;7.958;2024-03-25T16:55:34;0.80;;;0.40;;
9280;SDS011;4679;47.966;7.958;2024-03-25T16:57:35;2.03;;;0.40;;
9280;SDS011;4679;47.966;7.958;2024-03-25T16:59:36;0.27;;;0.27;;
9280;SDS011;4679;47.966;7.958;2024-03-25T17:01:38;0.50;;;0.40;;
9280;SDS011;4679;47.966;7.958;2024-03-25T17:03:38;0.40;;;0.20;;
9280;SDS011;4679;47.966;7.958;2024-03-25T17:05:39;0.83;;;0.30;;
9280;SDS011;4679;47.966;7.958;2024-03-25T17:07:40;0.30;;;0.30;;
9280;SDS011;4679;47.966;7.958;2024-03-25T17:09:40;1.40;;;0.30;;
9280;SDS011;4679;47.966;7.958;2024-03-25T17:11:41;0.67;;;0.47;;
9280;SDS011;4679;47.966;7.958;2024-03-25T17:13:42;1.00;;;0.40;;
9280;SDS011;4679;47.966;7.958;2024-03-25T17:15:43;1.70;;;1.10;;
9280;SDS011;4679;47.966;7.958;2024-03-25T17:17:45;2.60;;;1.30;;
9280;SDS011;4679;47.966;7.958;2024-03-25T17:19:46;1.07;;;0.50;;
9280;SDS011;4679;47.966;7.958;2024-03-25T17:21:47;0.73;;;0.40;;
9280;SDS011;4679;47.966;7.958;2024-03-25T17:23:49;0.40;;;0.30;;
9280;SDS011;4679;47.966;7.958;2024-03-25T17:25:50;0.30;;;0.30;;
9280;SDS011;4679;47.966;7.958;2024-03-25T17:27:50;1.33;;;0.30;;
9280;SDS011;4679;47.966;7.958;2024-03-25T17:29:51;0.30;;;0.20;;
9280;SDS011;4679;47.966;7.958;2024-03-25T17:31:52;0.20;;;0.20;;
9280;SDS011;4679;47.966;7.958;2024-03-25T17:33:54;0.30;;;0.20;;
9280;SDS011;4679;47.966;7.958;2024-03-25T17:35:54;0.60;;;0.20;;
9280;SDS011;4679;47.966;7.958;2024-03-25T17:37:55;2.33;;;0.47;;
9280;SDS011;4679;47.966;7.958;2024-03-25T17:39:56;0.40;;;0.40;;
9280;SDS011;4679;47.966;7.958;2024-03-25T17:41:56;1.43;;;1.00;;
9280;SDS011;4679;47.966;7.958;2024-03-25T17:43:57;0.30;;;0.30;;
9280;SDS011;4679;47.966;7.958;2024-03-25T17:45:58;1.13;;;0.20;;
9280;SDS011;4679;47.966;7.958;2024-03-25T17:48:02;0.20;;;0.20;;
9280;SDS011;4679;47.966;7.958;2024-03-25T17:50:04;0.87;;;0.30;;
9280;SDS011;4679;47.966;7.958;2024-03-25T17:52:06;0.57;;;0.30;;
9280;SDS011;4679;47.966;7.958;2024-03-25T17:54:06;0.40;;;0.30;;
9280;SDS011;4679;47.966;7.958;2024-03-25T17:56:07;0.20;;;0.20;;
9280;SDS011;4679;47.966;7.958;2024-03-25T17:58:08;0.63;;;0.40;;
9280;SDS011;4679;47.966;7.958;2024-03-25T18:00:09;0.80;;;0.40;;
9280;SDS011;4679;47.966;7.958;2024-03-25T18:02:10;0.43;;;0.20;;
9280;SDS011;4679;47.966;7.958;2024-03-25T18:04:11;1.00;;;0.23;;
9280;SDS011;4679;47.966;7.958;2024-03-25T18:06:13;0.70;;;0.30;;
9280;SDS011;4679;47.966;7.958;2024-03-25T18:08:13;0.20;;;0.20;;
9280;SDS011;4679;47.966;7.958;2024-03-25T18:10:14;0.30;;;0.20;;
9280;SDS011;4679;47.966;7.958;2024-03-25T18:12:16;2.00;;;0.40;;
9280;SDS011;4679;47.966;7.958;2024-03-25T18:14:16;0.20;;;0.20;;
9280;SDS011;4679;47.966;7.958;2024-03-25T18:16:17;1.37;;;0.30;;
9280;SDS011;4679;47.966;7.958;2024-03-25T18:18:18;0.67;;;0.20;;
9280;SDS011;4679;47.966;7.958;2024-03-25T18:20:19;0.60;;;0.30;;
9280;SDS011;4679;47.966;7.958;2024-03-25T18:22:21;0.70;;;0.70;;
9280;SDS011;4679;47.966;7.958;2024-03-25T18:24:22;3.20;;;0.70;;
9280;SDS011;4679;47.966;7.958;2024-03-25T18:26:23;0.70;;;0.70;;
9280;SDS011;4679;47.966;7.958;2024-03-25T18:28:23;0.70;;;0.50;;
9280;SDS011;4679;47.966;7.958;2024-03-25T18:30:24;1.47;;;0.80;;
9280;SDS011;4679;47.966;7.958;2024-03-25T18:32:25;1.27;;;1.10;;
9280;SDS011;4679;47.966;7.958;2024-03-25T18:34:25;2.57;;;1.70;;
9280;SDS011;4679;47.966;7.958;2024-03-25T18:36:26;1.37;;;1.20;;
9280;SDS011;4679;47.966;7.958;2024-03-25T18:38:28;2.37;;;1.07;;
9280;SDS011;4679;47.966;7.958;2024-03-25T18:40:29;0.80;;;0.70;;
9280;SDS011;4679;47.966;7.958;2024-03-25T18:42:30;1.53;;;0.53;;
9280;SDS011;4679;47.966;7.958;2024-03-25T18:44:30;1.73;;;0.60;;
9280;SDS011;4679;47.966;7.958;2024-03-25T18:46:31;2.33;;;1.80;;
9280;SDS011;4679;47.966;7.958;2024-03-25T18:48:32;0.63;;;0.53;;
9280;SDS011;4679;47.966;7.958;2024-03-25T18:50:32;0.67;;;0.47;;
9280;SDS011;4679;47.966;7.958;2024-03-25T18:52:33;0.90;;;0.30;;
9280;SDS011;4679;47.966;7.958;2024-03-25T18:54:35;0.50;;;0.50;;
9280;SDS011;4679;47.966;7.958;2024-03-25T18:56:35;0.60;;;0.60;;
9280;SDS011;4679;47.966;7.958;2024-03-25T18:58:36;0.50;;;0.50;;
9280;SDS011;4679;47.966;7.958;2024-03-25T19:00:37;2.70;;;1.40;;
9280;SDS011;4679;47.966;7.958;2024-03-25T19:02:37;3.27;;;2.07;;
9280;SDS011;4679;47.966;7.958;2024-03-25T19:04:38;1.37;;;1.10;;
9280;SDS011;4679;47.966;7.958;2024-03-25T19:06:39;1.90;;;1.23;;
9280;SDS011;4679;47.966;7.958;2024-03-25T19:08:39;1.03;;;0.93;;
9280;SDS011;4679;47.966;7.958;2024-03-25T19:10:41;1.23;;;0.60;;
9280;SDS011;4679;47.966;7.958;2024-03-25T19:12:42;1.53;;;0.60;;